sensor_id;sensor_type;location;lat;lon;timestamp;P1;durP1;ratioP1;P2;durP2;ratioP2
11907;SDS011;6014;47.690;9.130;2023-04-16T00:00:52;7.67;;;4.07;;
11907;SDS011;6014;47.690;9.130;2023-04-16T00:03:21;6.27;;;3.73;;
11907;SDS011;6014;47.690;9.130;2023-04-16T00:05:51;5.70;;;2.90;;
11907;SDS011;6014;47.690;9.130;2023-04-16T00:08:21;6.37;;;2.87;;
11907;SDS011;6014;47.690;9.130;2023-04-16T00:10:57;6.23;;;3.50;;
11907;SDS011;6014;47.690;9.130;2023-04-16T00:13:27;6.33;;;3.10;;
11907;SDS011;6014;47.690;9.130;2023-04-16T00:15:56;7.33;;;3.33;;
11907;SDS011;6014;47.690;9.130;2023-04-16T00:18:27;7.10;;;3.40;;
11907;SDS011;6014;47.690;9.130;2023-04-16T00:20:57;7.10;;;3.93;;
11907;SDS011;6014;47.690;9.130;2023-04-16T00:23:35;7.23;;;3.07;;
11907;SDS011;6014;47.690;9.130;2023-04-16T00:28:55;4.40;;;2.50;;
11907;SDS011;6014;47.690;9.130;2023-04-16T00:31:28;7.13;;;2.73;;
11907;SDS011;6014;47.690;9.130;2023-04-16T00:33:57;4.57;;;2.37;;
11907;SDS011;6014;47.690;9.130;2023-04-16T00:36:31;4.33;;;2.10;;
11907;SDS011;6014;47.690;9.130;2023-04-16T00:39:02;3.90;;;1.77;;
11907;SDS011;6014;47.690;9.130;2023-04-16T00:41:36;2.57;;;1.60;;
11907;SDS011;6014;47.690;9.130;2023-04-16T00:44:17;3.10;;;2.10;;
11907;SDS011;6014;47.690;9.130;2023-04-16T00:46:55;2.53;;;1.60;;
11907;SDS011;6014;47.690;9.130;2023-04-16T00:49:25;2.90;;;1.70;;
11907;SDS011;6014;47.690;9.130;2023-04-16T00:51:56;2.93;;;1.50;;
11907;SDS011;6014;47.690;9.130;2023-04-16T00:54:25;3.57;;;1.80;;
11907;SDS011;6014;47.690;9.130;2023-04-16T00:56:54;4.30;;;1.77;;
11907;SDS011;6014;47.690;9.130;2023-04-16T00:59:23;2.93;;;1.80;;
11907;SDS011;6014;47.690;9.130;2023-04-16T01:01:54;2.87;;;1.70;;
11907;SDS011;6014;47.690;9.130;2023-04-16T01:04:22;3.27;;;1.80;;
11907;SDS011;6014;47.690;9.130;2023-04-16T01:06:52;4.10;;;2.17;;
11907;SDS011;6014;47.690;9.130;2023-04-16T01:09:33;3.57;;;2.07;;
11907;SDS011;6014;47.690;9.130;2023-04-16T01:15:03;5.37;;;2.20;;
11907;SDS011;6014;47.690;9.130;2023-04-16T01:17:34;3.17;;;1.87;;
11907;SDS011;6014;47.690;9.130;2023-04-16T01:20:06;3.03;;;1.80;;
11907;SDS011;6014;47.690;9.130;2023-04-16T01:22:39;2.60;;;1.60;;
11907;SDS011;6014;47.690;9.130;2023-04-16T01:25:12;3.27;;;1.80;;
11907;SDS011;6014;47.690;9.130;2023-04-16T01:27:42;2.33;;;1.50;;
11907;SDS011;6014;47.690;9.130;2023-04-16T01:30:11;2.63;;;1.60;;
11907;SDS011;6014;47.690;9.130;2023-04-16T01:32:40;3.23;;;1.67;;
11907;SDS011;6014;47.690;9.130;2023-04-16T01:35:09;3.50;;;1.83;;
11907;SDS011;6014;47.690;9.130;2023-04-16T01:37:38;2.83;;;1.63;;
11907;SDS011;6014;47.690;9.130;2023-04-16T01:40:07;3.27;;;1.70;;
11907;SDS011;6014;47.690;9.130;2023-04-16T01:42:36;3.23;;;1.83;;
11907;SDS011;6014;47.690;9.130;2023-04-16T01:45:18;4.23;;;2.40;;
11907;SDS011;6014;47.690;9.130;2023-04-16T01:47:47;4.43;;;1.93;;
11907;SDS011;6014;47.690;9.130;2023-04-16T01:50:16;5.57;;;2.17;;
11907;SDS011;6014;47.690;9.130;2023-04-16T01:52:47;4.57;;;2.00;;
11907;SDS011;6014;47.690;9.130;2023-04-16T01:55:16;3.33;;;1.80;;
11907;SDS011;6014;47.690;9.130;2023-04-16T01:57:44;3.47;;;1.90;;
11907;SDS011;6014;47.690;9.130;2023-04-16T02:00:12;4.03;;;2.20;;
11907;SDS011;6014;47.690;9.130;2023-04-16T02:02:41;4.07;;;1.90;;
11907;SDS011;6014;47.690;9.130;2023-04-16T02:05:20;3.17;;;1.87;;
11907;SDS011;6014;47.690;9.130;2023-04-16T02:07:49;4.20;;;2.10;;
11907;SDS011;6014;47.690;9.130;2023-04-16T02:12:50;3.70;;;2.23;;
11907;SDS011;6014;47.690;9.130;2023-04-16T02:15:18;3.93;;;2.00;;
11907;SDS011;6014;47.690;9.130;2023-04-16T02:17:53;3.93;;;2.27;;
11907;SDS011;6014;47.690;9.130;2023-04-16T02:20:22;4.40;;;2.07;;
11907;SDS011;6014;47.690;9.130;2023-04-16T02:22:52;4.47;;;2.33;;
11907;SDS011;6014;47.690;9.130;2023-04-16T02:25:27;4.60;;;2.00;;
11907;SDS011;6014;47.690;9.130;2023-04-16T02:27:55;4.60;;;2.50;;
11907;SDS011;6014;47.690;9.130;2023-04-16T02:30:23;4.00;;;2.10;;
11907;SDS011;6014;47.690;9.130;2023-04-16T02:32:52;6.03;;;2.73;;
11907;SDS011;6014;47.690;9.130;2023-04-16T02:35:24;5.00;;;2.80;;
11907;SDS011;6014;47.690;9.130;2023-04-16T02:37:56;3.77;;;2.20;;
11907;SDS011;6014;47.690;9.130;2023-04-16T02:40:24;4.27;;;2.37;;
11907;SDS011;6014;47.690;9.130;2023-04-16T02:42:53;4.37;;;2.30;;
11907;SDS011;6014;47.690;9.130;2023-04-16T02:45:21;3.73;;;2.17;;
11907;SDS011;6014;47.690;9.130;2023-04-16T02:47:53;4.03;;;2.27;;
11907;SDS011;6014;47.690;9.130;2023-04-16T02:50:28;4.67;;;2.57;;
11907;SDS011;6014;47.690;9.130;2023-04-16T02:52:58;3.57;;;1.80;;
11907;SDS011;6014;47.690;9.130;2023-04-16T02:55:26;5.53;;;2.47;;
11907;SDS011;6014;47.690;9.130;2023-04-16T02:57:54;5.10;;;2.33;;
11907;SDS011;6014;47.690;9.130;2023-04-16T03:00:39;4.77;;;2.57;;
11907;SDS011;6014;47.690;9.130;2023-04-16T03:03:07;4.30;;;2.30;;
11907;SDS011;6014;47.690;9.130;2023-04-16T03:05:36;4.77;;;2.67;;
11907;SDS011;6014;47.690;9.130;2023-04-16T03:08:13;4.87;;;2.67;;
11907;SDS011;6014;47.690;9.130;2023-04-16T03:10:42;4.40;;;2.23;;
11907;SDS011;6014;47.690;9.130;2023-04-16T03:13:10;4.10;;;2.50;;
11907;SDS011;6014;47.690;9.130;2023-04-16T03:15:39;4.10;;;2.50;;
11907;SDS011;6014;47.690;9.130;2023-04-16T03:18:22;3.80;;;2.13;;
11907;SDS011;6014;47.690;9.130;2023-04-16T03:20:51;4.13;;;2.17;;
11907;SDS011;6014;47.690;9.130;2023-04-16T03:23:21;5.10;;;2.30;;
11907;SDS011;6014;47.690;9.130;2023-04-16T03:25:59;4.80;;;2.50;;
11907;SDS011;6014;47.690;9.130;2023-04-16T03:28:27;5.10;;;2.63;;
11907;SDS011;6014;47.690;9.130;2023-04-16T03:30:56;5.27;;;2.77;;
11907;SDS011;6014;47.690;9.130;2023-04-16T03:33:24;6.77;;;2.93;;
11907;SDS011;6014;47.690;9.130;2023-04-16T03:36:08;7.07;;;2.83;;
11907;SDS011;6014;47.690;9.130;2023-04-16T03:38:38;5.20;;;2.70;;
11907;SDS011;6014;47.690;9.130;2023-04-16T03:41:06;4.53;;;2.40;;
11907;SDS011;6014;47.690;9.130;2023-04-16T03:43:34;4.97;;;2.50;;
11907;SDS011;6014;47.690;9.130;2023-04-16T03:46:03;5.07;;;2.50;;
11907;SDS011;6014;47.690;9.130;2023-04-16T03:48:31;4.47;;;2.43;;
11907;SDS011;6014;47.690;9.130;2023-04-16T03:51:00;5.10;;;2.47;;
11907;SDS011;6014;47.690;9.130;2023-04-16T03:53:28;4.87;;;2.67;;
11907;SDS011;6014;47.690;9.130;2023-04-16T03:55:58;5.20;;;2.90;;
11907;SDS011;6014;47.690;9.130;2023-04-16T03:58:41;6.27;;;2.80;;
11907;SDS011;6014;47.690;9.130;2023-04-16T04:01:09;5.30;;;3.07;;
11907;SDS011;6014;47.690;9.130;2023-04-16T04:06:30;6.87;;;3.53;;
11907;SDS011;6014;47.690;9.130;2023-04-16T04:08:58;7.33;;;3.90;;
11907;SDS011;6014;47.690;9.130;2023-04-16T04:11:38;8.80;;;4.43;;
11907;SDS011;6014;47.690;9.130;2023-04-16T04:14:06;6.67;;;2.83;;
11907;SDS011;6014;47.690;9.130;2023-04-16T04:16:34;6.97;;;3.37;;
11907;SDS011;6014;47.690;9.130;2023-04-16T04:19:11;6.03;;;3.27;;
11907;SDS011;6014;47.690;9.130;2023-04-16T04:21:39;6.77;;;3.57;;
11907;SDS011;6014;47.690;9.130;2023-04-16T04:24:07;5.30;;;2.53;;
11907;SDS011;6014;47.690;9.130;2023-04-16T04:26:35;4.60;;;2.53;;
11907;SDS011;6014;47.690;9.130;2023-04-16T04:29:05;4.67;;;2.80;;
11907;SDS011;6014;47.690;9.130;2023-04-16T04:31:33;6.67;;;2.50;;
11907;SDS011;6014;47.690;9.130;2023-04-16T04:34:07;5.10;;;2.40;;
11907;SDS011;6014;47.690;9.130;2023-04-16T04:36:35;4.23;;;2.57;;
11907;SDS011;6014;47.690;9.130;2023-04-16T04:39:03;4.13;;;2.23;;
11907;SDS011;6014;47.690;9.130;2023-04-16T04:41:32;4.57;;;2.30;;
11907;SDS011;6014;47.690;9.130;2023-04-16T04:44:02;5.43;;;2.53;;
11907;SDS011;6014;47.690;9.130;2023-04-16T04:46:31;3.80;;;2.00;;
11907;SDS011;6014;47.690;9.130;2023-04-16T04:48:59;4.83;;;2.27;;
11907;SDS011;6014;47.690;9.130;2023-04-16T04:51:28;7.00;;;2.47;;
11907;SDS011;6014;47.690;9.130;2023-04-16T04:54:01;4.97;;;2.20;;
11907;SDS011;6014;47.690;9.130;2023-04-16T04:56:29;3.97;;;1.93;;
11907;SDS011;6014;47.690;9.130;2023-04-16T04:58:57;3.80;;;2.13;;
11907;SDS011;6014;47.690;9.130;2023-04-16T05:01:43;4.70;;;2.30;;
11907;SDS011;6014;47.690;9.130;2023-04-16T05:04:11;4.40;;;2.30;;
11907;SDS011;6014;47.690;9.130;2023-04-16T05:06:41;3.83;;;1.73;;
11907;SDS011;6014;47.690;9.130;2023-04-16T05:09:09;4.23;;;2.23;;
11907;SDS011;6014;47.690;9.130;2023-04-16T05:11:46;4.67;;;2.03;;
11907;SDS011;6014;47.690;9.130;2023-04-16T05:14:23;4.30;;;2.10;;
11907;SDS011;6014;47.690;9.130;2023-04-16T05:16:56;3.93;;;2.10;;
11907;SDS011;6014;47.690;9.130;2023-04-16T05:19:38;3.57;;;2.00;;
11907;SDS011;6014;47.690;9.130;2023-04-16T05:22:06;4.30;;;2.10;;
11907;SDS011;6014;47.690;9.130;2023-04-16T05:24:36;4.13;;;1.77;;
11907;SDS011;6014;47.690;9.130;2023-04-16T05:27:06;4.33;;;2.10;;
11907;SDS011;6014;47.690;9.130;2023-04-16T05:32:19;4.00;;;2.10;;
11907;SDS011;6014;47.690;9.130;2023-04-16T05:34:57;4.90;;;2.00;;
11907;SDS011;6014;47.690;9.130;2023-04-16T05:37:25;4.27;;;2.10;;
11907;SDS011;6014;47.690;9.130;2023-04-16T05:39:54;4.97;;;2.57;;
11907;SDS011;6014;47.690;9.130;2023-04-16T05:42:22;4.07;;;2.13;;
11907;SDS011;6014;47.690;9.130;2023-04-16T05:44:50;5.07;;;2.80;;
11907;SDS011;6014;47.690;9.130;2023-04-16T05:47:32;4.73;;;2.43;;
11907;SDS011;6014;47.690;9.130;2023-04-16T05:50:19;4.73;;;2.93;;
11907;SDS011;6014;47.690;9.130;2023-04-16T05:55:44;5.83;;;2.60;;
11907;SDS011;6014;47.690;9.130;2023-04-16T05:58:16;2.07;;;1.43;;
11907;SDS011;6014;47.690;9.130;2023-04-16T06:00:48;4.60;;;2.20;;
11907;SDS011;6014;47.690;9.130;2023-04-16T06:03:18;4.40;;;2.37;;
11907;SDS011;6014;47.690;9.130;2023-04-16T06:05:55;4.33;;;2.33;;
11907;SDS011;6014;47.690;9.130;2023-04-16T06:11:27;4.63;;;2.37;;
11907;SDS011;6014;47.690;9.130;2023-04-16T06:13:56;5.73;;;2.57;;
11907;SDS011;6014;47.690;9.130;2023-04-16T06:19:17;3.43;;;1.80;;
11907;SDS011;6014;47.690;9.130;2023-04-16T06:21:47;3.83;;;1.80;;
11907;SDS011;6014;47.690;9.130;2023-04-16T06:24:16;2.97;;;1.80;;
11907;SDS011;6014;47.690;9.130;2023-04-16T06:26:44;3.93;;;1.93;;
11907;SDS011;6014;47.690;9.130;2023-04-16T06:29:12;3.03;;;1.60;;
11907;SDS011;6014;47.690;9.130;2023-04-16T06:31:40;3.67;;;2.00;;
11907;SDS011;6014;47.690;9.130;2023-04-16T06:34:09;3.07;;;1.87;;
11907;SDS011;6014;47.690;9.130;2023-04-16T06:36:38;3.93;;;2.23;;
11907;SDS011;6014;47.690;9.130;2023-04-16T06:39:06;3.20;;;2.03;;
11907;SDS011;6014;47.690;9.130;2023-04-16T06:41:35;3.47;;;1.87;;
11907;SDS011;6014;47.690;9.130;2023-04-16T06:44:03;3.67;;;1.97;;
11907;SDS011;6014;47.690;9.130;2023-04-16T06:46:32;4.10;;;2.13;;
11907;SDS011;6014;47.690;9.130;2023-04-16T06:51:32;4.03;;;2.03;;
11907;SDS011;6014;47.690;9.130;2023-04-16T06:54:02;2.93;;;1.63;;
11907;SDS011;6014;47.690;9.130;2023-04-16T06:56:30;3.50;;;1.80;;
11907;SDS011;6014;47.690;9.130;2023-04-16T06:58:58;3.70;;;1.80;;
11907;SDS011;6014;47.690;9.130;2023-04-16T07:01:35;3.03;;;1.83;;
11907;SDS011;6014;47.690;9.130;2023-04-16T07:04:03;5.00;;;2.47;;
11907;SDS011;6014;47.690;9.130;2023-04-16T07:06:32;8.10;;;4.10;;
11907;SDS011;6014;47.690;9.130;2023-04-16T07:09:01;5.63;;;3.23;;
11907;SDS011;6014;47.690;9.130;2023-04-16T07:11:29;4.23;;;2.53;;
11907;SDS011;6014;47.690;9.130;2023-04-16T07:13:57;5.53;;;3.37;;
11907;SDS011;6014;47.690;9.130;2023-04-16T07:16:26;5.10;;;2.70;;
11907;SDS011;6014;47.690;9.130;2023-04-16T07:18:55;5.17;;;3.07;;
11907;SDS011;6014;47.690;9.130;2023-04-16T07:21:23;5.23;;;2.90;;
11907;SDS011;6014;47.690;9.130;2023-04-16T07:23:51;4.73;;;2.50;;
11907;SDS011;6014;47.690;9.130;2023-04-16T07:26:21;5.10;;;2.83;;
11907;SDS011;6014;47.690;9.130;2023-04-16T07:28:49;5.73;;;2.50;;
11907;SDS011;6014;47.690;9.130;2023-04-16T07:31:21;3.90;;;1.90;;
11907;SDS011;6014;47.690;9.130;2023-04-16T07:33:49;4.43;;;2.00;;
11907;SDS011;6014;47.690;9.130;2023-04-16T07:36:17;4.00;;;2.10;;
11907;SDS011;6014;47.690;9.130;2023-04-16T07:38:45;3.17;;;2.00;;
11907;SDS011;6014;47.690;9.130;2023-04-16T07:41:13;4.47;;;2.30;;
11907;SDS011;6014;47.690;9.130;2023-04-16T07:43:44;3.23;;;1.90;;
11907;SDS011;6014;47.690;9.130;2023-04-16T07:46:12;3.30;;;1.87;;
11907;SDS011;6014;47.690;9.130;2023-04-16T07:48:40;4.20;;;2.07;;
11907;SDS011;6014;47.690;9.130;2023-04-16T07:51:09;3.17;;;1.70;;
11907;SDS011;6014;47.690;9.130;2023-04-16T07:53:37;3.60;;;2.07;;
11907;SDS011;6014;47.690;9.130;2023-04-16T07:56:06;2.67;;;1.80;;
11907;SDS011;6014;47.690;9.130;2023-04-16T07:58:34;3.33;;;1.70;;
11907;SDS011;6014;47.690;9.130;2023-04-16T08:01:04;3.23;;;1.70;;
11907;SDS011;6014;47.690;9.130;2023-04-16T08:03:32;4.40;;;1.67;;
11907;SDS011;6014;47.690;9.130;2023-04-16T08:06:00;6.03;;;3.33;;
11907;SDS011;6014;47.690;9.130;2023-04-16T08:08:29;9.23;;;5.50;;
11907;SDS011;6014;47.690;9.130;2023-04-16T08:11:11;8.57;;;4.67;;
11907;SDS011;6014;47.690;9.130;2023-04-16T08:13:41;12.37;;;6.17;;
11907;SDS011;6014;47.690;9.130;2023-04-16T08:19:19;4.60;;;2.30;;
11907;SDS011;6014;47.690;9.130;2023-04-16T08:21:48;3.73;;;2.10;;
11907;SDS011;6014;47.690;9.130;2023-04-16T08:24:16;5.03;;;2.33;;
11907;SDS011;6014;47.690;9.130;2023-04-16T08:26:44;5.47;;;2.67;;
11907;SDS011;6014;47.690;9.130;2023-04-16T08:29:12;4.43;;;2.23;;
11907;SDS011;6014;47.690;9.130;2023-04-16T08:31:40;3.40;;;2.00;;
11907;SDS011;6014;47.690;9.130;2023-04-16T08:34:09;4.60;;;2.47;;
11907;SDS011;6014;47.690;9.130;2023-04-16T08:36:44;3.37;;;1.90;;
11907;SDS011;6014;47.690;9.130;2023-04-16T08:39:12;4.27;;;2.40;;
11907;SDS011;6014;47.690;9.130;2023-04-16T08:41:48;3.67;;;2.10;;
11907;SDS011;6014;47.690;9.130;2023-04-16T08:44:19;4.60;;;2.80;;
11907;SDS011;6014;47.690;9.130;2023-04-16T08:46:53;4.10;;;2.20;;
11907;SDS011;6014;47.690;9.130;2023-04-16T08:49:22;3.43;;;1.97;;
11907;SDS011;6014;47.690;9.130;2023-04-16T08:51:52;4.70;;;2.37;;
11907;SDS011;6014;47.690;9.130;2023-04-16T08:54:29;3.67;;;2.30;;
11907;SDS011;6014;47.690;9.130;2023-04-16T08:56:58;3.53;;;2.13;;
11907;SDS011;6014;47.690;9.130;2023-04-16T08:59:29;4.60;;;2.33;;
11907;SDS011;6014;47.690;9.130;2023-04-16T09:01:58;4.50;;;2.53;;
11907;SDS011;6014;47.690;9.130;2023-04-16T09:04:27;5.17;;;2.87;;
11907;SDS011;6014;47.690;9.130;2023-04-16T09:06:59;5.00;;;2.87;;
11907;SDS011;6014;47.690;9.130;2023-04-16T09:09:30;5.13;;;3.17;;
11907;SDS011;6014;47.690;9.130;2023-04-16T09:12:00;4.43;;;2.47;;
11907;SDS011;6014;47.690;9.130;2023-04-16T09:14:28;5.07;;;2.90;;
11907;SDS011;6014;47.690;9.130;2023-04-16T09:19:42;4.73;;;2.60;;
11907;SDS011;6014;47.690;9.130;2023-04-16T09:22:11;5.87;;;2.10;;
11907;SDS011;6014;47.690;9.130;2023-04-16T09:24:39;3.90;;;2.20;;
11907;SDS011;6014;47.690;9.130;2023-04-16T09:27:10;4.17;;;2.30;;
11907;SDS011;6014;47.690;9.130;2023-04-16T09:29:39;3.77;;;1.90;;
11907;SDS011;6014;47.690;9.130;2023-04-16T09:32:08;6.07;;;2.30;;
11907;SDS011;6014;47.690;9.130;2023-04-16T09:37:33;5.17;;;2.17;;
11907;SDS011;6014;47.690;9.130;2023-04-16T09:40:01;4.77;;;2.23;;
11907;SDS011;6014;47.690;9.130;2023-04-16T09:42:37;4.40;;;2.37;;
11907;SDS011;6014;47.690;9.130;2023-04-16T09:45:12;4.27;;;1.90;;
11907;SDS011;6014;47.690;9.130;2023-04-16T09:47:40;4.70;;;2.80;;
11907;SDS011;6014;47.690;9.130;2023-04-16T09:50:13;5.33;;;2.63;;
11907;SDS011;6014;47.690;9.130;2023-04-16T09:52:48;4.10;;;2.00;;
11907;SDS011;6014;47.690;9.130;2023-04-16T09:55:21;3.63;;;1.80;;
11907;SDS011;6014;47.690;9.130;2023-04-16T09:57:57;3.97;;;1.93;;
11907;SDS011;6014;47.690;9.130;2023-04-16T10:00:27;4.53;;;2.30;;
11907;SDS011;6014;47.690;9.130;2023-04-16T10:03:12;4.53;;;2.67;;
11907;SDS011;6014;47.690;9.130;2023-04-16T10:05:47;4.23;;;2.77;;
11907;SDS011;6014;47.690;9.130;2023-04-16T10:08:17;4.70;;;2.53;;
11907;SDS011;6014;47.690;9.130;2023-04-16T10:10:46;4.13;;;2.53;;
11907;SDS011;6014;47.690;9.130;2023-04-16T10:13:26;4.27;;;2.13;;
11907;SDS011;6014;47.690;9.130;2023-04-16T10:16:03;4.23;;;2.30;;
11907;SDS011;6014;47.690;9.130;2023-04-16T10:18:35;3.00;;;1.93;;
11907;SDS011;6014;47.690;9.130;2023-04-16T10:21:04;4.90;;;1.80;;
11907;SDS011;6014;47.690;9.130;2023-04-16T10:23:35;3.90;;;2.10;;
11907;SDS011;6014;47.690;9.130;2023-04-16T10:26:06;4.57;;;2.17;;
11907;SDS011;6014;47.690;9.130;2023-04-16T10:28:35;4.70;;;2.33;;
11907;SDS011;6014;47.690;9.130;2023-04-16T10:31:09;4.00;;;2.17;;
11907;SDS011;6014;47.690;9.130;2023-04-16T10:33:42;4.37;;;2.30;;
11907;SDS011;6014;47.690;9.130;2023-04-16T10:36:11;5.00;;;2.70;;
11907;SDS011;6014;47.690;9.130;2023-04-16T10:38:44;5.13;;;2.90;;
11907;SDS011;6014;47.690;9.130;2023-04-16T10:41:14;5.70;;;3.03;;
11907;SDS011;6014;47.690;9.130;2023-04-16T10:43:49;4.30;;;2.70;;
11907;SDS011;6014;47.690;9.130;2023-04-16T10:46:18;4.07;;;2.30;;
11907;SDS011;6014;47.690;9.130;2023-04-16T10:48:48;4.80;;;2.37;;
11907;SDS011;6014;47.690;9.130;2023-04-16T10:56:53;4.20;;;2.20;;
11907;SDS011;6014;47.690;9.130;2023-04-16T10:59:23;5.93;;;2.00;;
11907;SDS011;6014;47.690;9.130;2023-04-16T11:01:57;3.80;;;1.97;;
11907;SDS011;6014;47.690;9.130;2023-04-16T11:04:28;3.67;;;2.33;;
11907;SDS011;6014;47.690;9.130;2023-04-16T11:07:04;4.60;;;2.47;;
11907;SDS011;6014;47.690;9.130;2023-04-16T11:09:45;3.80;;;2.07;;
11907;SDS011;6014;47.690;9.130;2023-04-16T11:12:18;5.17;;;2.70;;
11907;SDS011;6014;47.690;9.130;2023-04-16T11:14:57;4.83;;;2.40;;
11907;SDS011;6014;47.690;9.130;2023-04-16T11:17:27;4.77;;;2.70;;
11907;SDS011;6014;47.690;9.130;2023-04-16T11:19:58;6.77;;;3.03;;
11907;SDS011;6014;47.690;9.130;2023-04-16T11:22:28;4.67;;;2.30;;
11907;SDS011;6014;47.690;9.130;2023-04-16T11:25:07;3.87;;;2.00;;
11907;SDS011;6014;47.690;9.130;2023-04-16T11:27:42;3.40;;;1.60;;
11907;SDS011;6014;47.690;9.130;2023-04-16T11:30:11;3.80;;;2.03;;
11907;SDS011;6014;47.690;9.130;2023-04-16T11:35:17;4.03;;;2.10;;
11907;SDS011;6014;47.690;9.130;2023-04-16T11:37:54;4.17;;;1.90;;
11907;SDS011;6014;47.690;9.130;2023-04-16T11:40:32;4.07;;;2.23;;
11907;SDS011;6014;47.690;9.130;2023-04-16T11:43:03;4.30;;;2.30;;
11907;SDS011;6014;47.690;9.130;2023-04-16T11:48:53;4.20;;;2.13;;
11907;SDS011;6014;47.690;9.130;2023-04-16T11:51:25;3.67;;;2.10;;
11907;SDS011;6014;47.690;9.130;2023-04-16T11:53:53;5.97;;;2.30;;
11907;SDS011;6014;47.690;9.130;2023-04-16T11:56:28;3.17;;;1.63;;
11907;SDS011;6014;47.690;9.130;2023-04-16T12:01:39;8.07;;;4.33;;
11907;SDS011;6014;47.690;9.130;2023-04-16T12:04:13;35.53;;;21.30;;
11907;SDS011;6014;47.690;9.130;2023-04-16T12:07:04;5.67;;;3.60;;
11907;SDS011;6014;47.690;9.130;2023-04-16T12:09:37;6.23;;;3.53;;
11907;SDS011;6014;47.690;9.130;2023-04-16T12:14:57;4.40;;;2.40;;
11907;SDS011;6014;47.690;9.130;2023-04-16T12:17:28;3.67;;;2.30;;
11907;SDS011;6014;47.690;9.130;2023-04-16T12:20:03;5.00;;;2.43;;
11907;SDS011;6014;47.690;9.130;2023-04-16T12:22:35;4.33;;;2.43;;
11907;SDS011;6014;47.690;9.130;2023-04-16T12:25:06;4.40;;;2.43;;
11907;SDS011;6014;47.690;9.130;2023-04-16T12:27:45;5.07;;;2.77;;
11907;SDS011;6014;47.690;9.130;2023-04-16T12:30:25;5.50;;;2.80;;
11907;SDS011;6014;47.690;9.130;2023-04-16T12:35:40;5.00;;;2.73;;
11907;SDS011;6014;47.690;9.130;2023-04-16T12:38:10;5.47;;;2.33;;
11907;SDS011;6014;47.690;9.130;2023-04-16T12:40:40;5.10;;;2.90;;
11907;SDS011;6014;47.690;9.130;2023-04-16T12:43:10;5.30;;;2.83;;
11907;SDS011;6014;47.690;9.130;2023-04-16T12:45:38;5.63;;;3.03;;
11907;SDS011;6014;47.690;9.130;2023-04-16T12:48:06;4.17;;;2.27;;
11907;SDS011;6014;47.690;9.130;2023-04-16T12:50:34;5.83;;;2.40;;
11907;SDS011;6014;47.690;9.130;2023-04-16T12:53:04;5.13;;;2.70;;
11907;SDS011;6014;47.690;9.130;2023-04-16T12:55:33;5.90;;;2.83;;
11907;SDS011;6014;47.690;9.130;2023-04-16T12:58:01;5.77;;;2.70;;
11907;SDS011;6014;47.690;9.130;2023-04-16T13:00:30;17.17;;;9.97;;
11907;SDS011;6014;47.690;9.130;2023-04-16T13:02:59;5.53;;;3.40;;
11907;SDS011;6014;47.690;9.130;2023-04-16T13:05:27;6.43;;;2.53;;
11907;SDS011;6014;47.690;9.130;2023-04-16T13:07:55;5.83;;;3.40;;
11907;SDS011;6014;47.690;9.130;2023-04-16T13:10:23;5.13;;;2.70;;
11907;SDS011;6014;47.690;9.130;2023-04-16T13:12:52;5.80;;;2.97;;
11907;SDS011;6014;47.690;9.130;2023-04-16T13:15:28;5.90;;;2.93;;
11907;SDS011;6014;47.690;9.130;2023-04-16T13:17:57;6.73;;;2.97;;
11907;SDS011;6014;47.690;9.130;2023-04-16T13:20:25;5.97;;;2.87;;
11907;SDS011;6014;47.690;9.130;2023-04-16T13:22:53;5.27;;;2.70;;
11907;SDS011;6014;47.690;9.130;2023-04-16T13:25:21;6.27;;;2.90;;
11907;SDS011;6014;47.690;9.130;2023-04-16T13:27:51;5.43;;;2.80;;
11907;SDS011;6014;47.690;9.130;2023-04-16T13:30:19;6.37;;;3.20;;
11907;SDS011;6014;47.690;9.130;2023-04-16T13:32:47;5.73;;;2.77;;
11907;SDS011;6014;47.690;9.130;2023-04-16T13:35:16;4.40;;;2.23;;
11907;SDS011;6014;47.690;9.130;2023-04-16T13:37:44;6.57;;;3.73;;
11907;SDS011;6014;47.690;9.130;2023-04-16T13:40:12;5.22;;;2.55;;
11907;SDS011;6014;47.690;9.130;2023-04-16T13:42:57;6.25;;;3.35;;
11907;SDS011;6014;47.690;9.130;2023-04-16T13:45:25;7.77;;;4.00;;
11907;SDS011;6014;47.690;9.130;2023-04-16T13:47:53;6.40;;;3.60;;
11907;SDS011;6014;47.690;9.130;2023-04-16T13:50:23;6.95;;;3.88;;
11907;SDS011;6014;47.690;9.130;2023-04-16T13:52:51;7.72;;;4.22;;
11907;SDS011;6014;47.690;9.130;2023-04-16T13:55:19;6.97;;;4.20;;
11907;SDS011;6014;47.690;9.130;2023-04-16T13:57:47;9.52;;;4.93;;
11907;SDS011;6014;47.690;9.130;2023-04-16T14:00:17;10.48;;;6.20;;
11907;SDS011;6014;47.690;9.130;2023-04-16T14:02:45;13.45;;;7.97;;
11907;SDS011;6014;47.690;9.130;2023-04-16T14:05:15;11.88;;;7.18;;
11907;SDS011;6014;47.690;9.130;2023-04-16T14:07:45;12.77;;;6.65;;
11907;SDS011;6014;47.690;9.130;2023-04-16T14:10:13;10.80;;;6.43;;
11907;SDS011;6014;47.690;9.130;2023-04-16T14:12:42;11.32;;;7.07;;
11907;SDS011;6014;47.690;9.130;2023-04-16T14:15:10;11.30;;;7.03;;
11907;SDS011;6014;47.690;9.130;2023-04-16T14:17:40;11.20;;;7.37;;
11907;SDS011;6014;47.690;9.130;2023-04-16T14:20:09;11.55;;;7.00;;
11907;SDS011;6014;47.690;9.130;2023-04-16T14:22:39;12.07;;;6.60;;
11907;SDS011;6014;47.690;9.130;2023-04-16T14:25:10;9.73;;;6.07;;
11907;SDS011;6014;47.690;9.130;2023-04-16T14:27:38;12.67;;;6.50;;
11907;SDS011;6014;47.690;9.130;2023-04-16T14:30:07;11.27;;;6.80;;
11907;SDS011;6014;47.690;9.130;2023-04-16T14:32:36;10.20;;;6.77;;
11907;SDS011;6014;47.690;9.130;2023-04-16T14:35:04;11.67;;;6.83;;
11907;SDS011;6014;47.690;9.130;2023-04-16T14:37:33;11.23;;;6.77;;
11907;SDS011;6014;47.690;9.130;2023-04-16T14:40:02;10.90;;;6.90;;
11907;SDS011;6014;47.690;9.130;2023-04-16T14:42:34;10.37;;;6.60;;
11907;SDS011;6014;47.690;9.130;2023-04-16T14:45:03;10.32;;;6.70;;
11907;SDS011;6014;47.690;9.130;2023-04-16T14:47:32;11.10;;;6.60;;
11907;SDS011;6014;47.690;9.130;2023-04-16T14:50:00;10.20;;;5.90;;
11907;SDS011;6014;47.690;9.130;2023-04-16T14:52:29;12.13;;;6.87;;
11907;SDS011;6014;47.690;9.130;2023-04-16T14:54:57;12.10;;;6.83;;
11907;SDS011;6014;47.690;9.130;2023-04-16T14:57:26;12.30;;;6.67;;
11907;SDS011;6014;47.690;9.130;2023-04-16T14:59:55;11.93;;;7.07;;
11907;SDS011;6014;47.690;9.130;2023-04-16T15:02:23;15.80;;;8.07;;
11907;SDS011;6014;47.690;9.130;2023-04-16T15:04:51;12.55;;;7.20;;
11907;SDS011;6014;47.690;9.130;2023-04-16T15:07:20;12.37;;;6.73;;
11907;SDS011;6014;47.690;9.130;2023-04-16T15:09:48;10.70;;;6.63;;
11907;SDS011;6014;47.690;9.130;2023-04-16T15:12:16;11.70;;;7.33;;
11907;SDS011;6014;47.690;9.130;2023-04-16T15:14:56;11.47;;;7.13;;
11907;SDS011;6014;47.690;9.130;2023-04-16T15:17:25;11.97;;;6.83;;
11907;SDS011;6014;47.690;9.130;2023-04-16T15:19:55;11.33;;;6.53;;
11907;SDS011;6014;47.690;9.130;2023-04-16T15:22:28;11.53;;;7.20;;
11907;SDS011;6014;47.690;9.130;2023-04-16T15:24:59;12.33;;;7.50;;
11907;SDS011;6014;47.690;9.130;2023-04-16T15:27:34;12.70;;;7.33;;
11907;SDS011;6014;47.690;9.130;2023-04-16T15:30:06;11.00;;;6.77;;
11907;SDS011;6014;47.690;9.130;2023-04-16T15:32:36;11.07;;;5.88;;
11907;SDS011;6014;47.690;9.130;2023-04-16T15:35:12;11.43;;;7.43;;
11907;SDS011;6014;47.690;9.130;2023-04-16T15:37:41;12.07;;;7.33;;
11907;SDS011;6014;47.690;9.130;2023-04-16T15:40:09;11.60;;;7.20;;
11907;SDS011;6014;47.690;9.130;2023-04-16T15:42:37;11.87;;;7.53;;
11907;SDS011;6014;47.690;9.130;2023-04-16T15:45:20;10.70;;;6.80;;
11907;SDS011;6014;47.690;9.130;2023-04-16T15:47:49;11.67;;;6.87;;
11907;SDS011;6014;47.690;9.130;2023-04-16T15:50:26;12.90;;;7.60;;
11907;SDS011;6014;47.690;9.130;2023-04-16T15:53:00;11.37;;;7.27;;
11907;SDS011;6014;47.690;9.130;2023-04-16T15:55:37;11.43;;;6.97;;
11907;SDS011;6014;47.690;9.130;2023-04-16T15:58:11;15.13;;;9.57;;
11907;SDS011;6014;47.690;9.130;2023-04-16T16:00:40;15.50;;;9.10;;
11907;SDS011;6014;47.690;9.130;2023-04-16T16:03:26;14.97;;;8.40;;
11907;SDS011;6014;47.690;9.130;2023-04-16T16:06:08;10.93;;;7.33;;
11907;SDS011;6014;47.690;9.130;2023-04-16T16:08:37;11.30;;;7.17;;
11907;SDS011;6014;47.690;9.130;2023-04-16T16:11:05;11.90;;;7.43;;
11907;SDS011;6014;47.690;9.130;2023-04-16T16:13:40;12.77;;;7.63;;
11907;SDS011;6014;47.690;9.130;2023-04-16T16:16:10;10.23;;;6.37;;